Time;durP1;ratioP1;P1;durP2;ratioP2;P2;SDS_P1;SDS_P2;PMS_P1;PMS_P2;Temp;Humidity;BMP_temperature;BMP_pressure;BME280_temperature;BME280_humidity;BME280_pressure;Samples;Min_cycle;Max_cycle;Signal;HPM_P1;HPM_P2
2023/11/19 00:02:49;;;;;;;2.37;2.10;;;;;;;;;;6256895;28;20291;-71
2023/11/19 00:05:54;;;;;;;3.10;2.20;;;;;;;;;;6280867;28;20310;-72
2023/11/19 00:08:58;;;;;;;2.40;2.20;;;;;;;;;;6280020;28;20295;-74
2023/11/19 00:12:01;;;;;;;2.20;2.10;;;;;;;;;;6280265;28;20293;-70
2023/11/19 00:15:08;;;;;;;2.43;2.20;;;;;;;;;;6279517;28;20411;-71
2023/11/19 00:18:12;;;;;;;2.33;2.20;;;;;;;;;;6279179;28;20290;-71
2023/11/19 00:21:17;;;;;;;5.57;2.13;;;;;;;;;;6278584;28;20294;-72
2023/11/19 00:24:21;;;;;;;2.10;2.10;;;;;;;;;;6279781;28;20307;-71
2023/11/19 00:27:25;;;;;;;2.00;2.00;;;;;;;;;;6279707;28;20299;-73
2023/11/19 00:30:28;;;;;;;2.30;2.10;;;;;;;;;;6279246;28;20293;-70
2023/11/19 00:33:32;;;;;;;2.30;2.30;;;;;;;;;;6279058;28;20296;-71
2023/11/19 00:36:37;;;;;;;2.10;2.10;;;;;;;;;;6261534;28;20294;-73
2023/11/19 00:39:41;;;;;;;2.40;2.20;;;;;;;;;;6261052;28;20294;-72
2023/11/19 00:42:44;;;;;;;2.30;2.30;;;;;;;;;;6279010;28;20286;-71
2023/11/19 00:45:50;;;;;;;2.47;2.37;;;;;;;;;;6279360;28;20316;-71
2023/11/19 00:48:54;;;;;;;1.97;1.97;;;;;;;;;;6278701;28;20309;-72
2023/11/19 00:51:59;;;;;;;2.20;2.20;;;;;;;;;;6279106;28;20325;-71
2023/11/19 00:55:04;;;;;;;2.40;2.30;;;;;;;;;;6261037;28;20304;-71
2023/11/19 00:58:08;;;;;;;2.20;2.20;;;;;;;;;;6258494;28;20296;-72
2023/11/19 01:01:12;;;;;;;2.30;2.30;;;;;;;;;;6261438;28;20339;-71
2023/11/19 01:04:16;;;;;;;2.40;2.40;;;;;;;;;;6284687;28;20361;-70
2023/11/19 01:07:21;;;;;;;2.47;2.20;;;;;;;;;;6261496;28;20291;-74
2023/11/19 01:10:25;;;;;;;2.20;2.20;;;;;;;;;;6279646;28;20350;-71
2023/11/19 01:13:29;;;;;;;2.17;2.10;;;;;;;;;;6279312;28;20299;-73
2023/11/19 01:16:33;;;;;;;2.30;2.30;;;;;;;;;;6279613;28;20588;-73
2023/11/19 01:19:37;;;;;;;2.33;2.30;;;;;;;;;;6259704;28;20474;-71
2023/11/19 01:22:43;;;;;;;2.33;2.33;;;;;;;;;;6278081;28;20318;-70
2023/11/19 01:25:48;;;;;;;2.30;2.30;;;;;;;;;;6260307;28;20326;-71
2023/11/19 01:28:52;;;;;;;5.13;2.50;;;;;;;;;;6278742;28;20294;-73
2023/11/19 01:31:56;;;;;;;2.67;2.57;;;;;;;;;;6251612;28;20295;-73
2023/11/19 01:35:00;;;;;;;2.60;2.50;;;;;;;;;;6298970;28;20306;-73
2023/11/19 01:38:08;;;;;;;3.03;2.77;;;;;;;;;;6283682;28;20302;-72
2023/11/19 01:41:12;;;;;;;2.30;2.30;;;;;;;;;;6298481;28;20302;-71
2023/11/19 01:44:16;;;;;;;2.83;2.70;;;;;;;;;;6283018;28;20586;-71
2023/11/19 01:47:20;;;;;;;2.40;2.40;;;;;;;;;;6298524;28;20285;-71
2023/11/19 01:50:24;;;;;;;2.97;2.77;;;;;;;;;;6282819;28;20306;-71
2023/11/19 01:53:30;;;;;;;2.60;2.60;;;;;;;;;;6297460;28;20287;-72
2023/11/19 01:56:35;;;;;;;2.60;2.50;;;;;;;;;;6283223;28;20306;-70
2023/11/19 01:59:38;;;;;;;2.60;2.50;;;;;;;;;;6285456;28;20450;-72
2023/11/19 02:02:43;;;;;;;2.90;2.80;;;;;;;;;;6281041;28;20581;-72
2023/11/19 02:05:49;;;;;;;2.60;2.50;;;;;;;;;;6231945;28;20284;-72
2023/11/19 02:08:54;;;;;;;2.77;2.67;;;;;;;;;;6233015;28;20303;-72
2023/11/19 02:11:57;;;;;;;3.70;3.53;;;;;;;;;;6248641;28;20304;-70
2023/11/19 02:15:02;;;;;;;4.70;4.40;;;;;;;;;;6208671;28;20328;-71
2023/11/19 02:18:22;;;;;;;4.80;4.50;;;;;;;;;;6219990;28;20491;-72
2023/11/19 02:21:26;;;;;;;5.87;5.37;;;;;;;;;;6231628;28;20288;-71
2023/11/19 02:24:34;;;;;;;5.63;5.23;;;;;;;;;;6231699;28;20288;-70
2023/11/19 02:27:48;;;;;;;6.47;5.87;;;;;;;;;;6231675;28;20482;-72
2023/11/19 02:30:53;;;;;;;6.43;5.93;;;;;;;;;;6248446;28;20306;-70
2023/11/19 02:33:56;;;;;;;5.30;4.80;;;;;;;;;;6233084;28;20489;-71
2023/11/19 02:37:00;;;;;;;5.00;4.00;;;;;;;;;;6245727;28;20510;-70
2023/11/19 02:40:05;;;;;;;8.33;3.80;;;;;;;;;;6232694;28;20849;-71
2023/11/19 02:43:10;;;;;;;3.57;3.37;;;;;;;;;;6231027;28;20430;-71
2023/11/19 02:46:15;;;;;;;2.90;2.80;;;;;;;;;;6231866;28;20300;-73
2023/11/19 02:49:19;;;;;;;3.07;2.97;;;;;;;;;;6230698;28;20304;-70
2023/11/19 02:52:22;;;;;;;2.80;2.80;;;;;;;;;;6230570;28;20291;-71
2023/11/19 02:55:30;;;;;;;2.70;2.57;;;;;;;;;;6232727;28;20307;-71
2023/11/19 02:58:35;;;;;;;2.57;2.57;;;;;;;;;;6230310;28;20293;-71
2023/11/19 03:01:43;;;;;;;3.50;2.60;;;;;;;;;;6231505;28;20304;-72
2023/11/19 03:04:47;;;;;;;2.37;2.37;;;;;;;;;;6247383;28;20300;-71
2023/11/19 03:07:51;;;;;;;2.70;2.60;;;;;;;;;;6271189;28;20324;-71
2023/11/19 03:10:55;;;;;;;2.73;2.57;;;;;;;;;;6255070;28;20303;-71
2023/11/19 03:14:00;;;;;;;2.40;2.40;;;;;;;;;;6256547;28;20292;-70
2023/11/19 03:17:04;;;;;;;2.50;2.40;;;;;;;;;;6254417;28;20299;-71
2023/11/19 03:20:11;;;;;;;2.70;2.50;;;;;;;;;;6256532;28;20312;-71
2023/11/19 03:23:17;;;;;;;3.90;2.20;;;;;;;;;;6271815;28;20310;-71
2023/11/19 03:26:21;;;;;;;2.63;2.63;;;;;;;;;;6271730;28;20299;-71
2023/11/19 03:29:28;;;;;;;2.50;2.50;;;;;;;;;;6256119;28;20283;-71
2023/11/19 03:32:33;;;;;;;2.40;2.40;;;;;;;;;;6256306;28;20298;-73
2023/11/19 03:35:37;;;;;;;2.87;2.33;;;;;;;;;;6256442;28;20600;-72
2023/11/19 03:38:42;;;;;;;2.97;2.80;;;;;;;;;;6271025;28;20307;-72
2023/11/19 03:41:47;;;;;;;2.40;2.30;;;;;;;;;;6271456;28;20454;-74
2023/11/19 03:44:53;;;;;;;2.27;2.27;;;;;;;;;;6255963;28;20364;-71
2023/11/19 03:47:57;;;;;;;2.27;2.27;;;;;;;;;;6255808;28;20515;-72
2023/11/19 03:51:01;;;;;;;2.00;2.00;;;;;;;;;;6255332;28;20330;-71
2023/11/19 03:54:06;;;;;;;2.10;2.10;;;;;;;;;;6256028;28;20296;-71
2023/11/19 03:57:10;;;;;;;2.13;2.13;;;;;;;;;;6253842;28;20364;-71
2023/11/19 04:00:16;;;;;;;2.50;2.40;;;;;;;;;;6253243;28;20304;-72
2023/11/19 04:03:20;;;;;;;3.03;2.87;;;;;;;;;;6271384;28;20314;-71
2023/11/19 04:06:24;;;;;;;2.73;2.63;;;;;;;;;;6279210;28;20302;-72
2023/11/19 04:09:28;;;;;;;2.40;2.40;;;;;;;;;;6294636;28;20285;-73
2023/11/19 04:12:31;;;;;;;2.23;2.20;;;;;;;;;;6280225;28;20518;-71
2023/11/19 04:15:36;;;;;;;2.80;2.30;;;;;;;;;;6279405;28;20299;-70
2023/11/19 04:18:40;;;;;;;2.77;2.43;;;;;;;;;;6279185;28;20316;-71
2023/11/19 04:21:44;;;;;;;2.87;2.40;;;;;;;;;;6279718;28;20293;-71
2023/11/19 04:24:47;;;;;;;2.17;2.07;;;;;;;;;;6261568;28;20307;-71
2023/11/19 04:27:51;;;;;;;1.90;1.90;;;;;;;;;;6279197;28;20320;-71
2023/11/19 04:30:57;;;;;;;2.17;2.10;;;;;;;;;;6279602;28;20294;-71
2023/11/19 04:34:01;;;;;;;2.00;2.00;;;;;;;;;;6278962;28;20723;-69
2023/11/19 04:37:05;;;;;;;2.03;1.97;;;;;;;;;;6279271;28;20366;-70
2023/11/19 04:40:12;;;;;;;1.90;1.87;;;;;;;;;;6278933;28;20298;-72
2023/11/19 04:43:16;;;;;;;1.90;1.90;;;;;;;;;;6278930;28;20573;-71
2023/11/19 04:46:23;;;;;;;2.17;2.17;;;;;;;;;;6279390;28;20302;-71
2023/11/19 04:49:27;;;;;;;1.80;1.80;;;;;;;;;;6278874;28;20297;-72
2023/11/19 04:52:31;;;;;;;1.87;1.87;;;;;;;;;;6279435;28;20291;-70
2023/11/19 04:55:35;;;;;;;2.30;2.20;;;;;;;;;;6278431;28;20292;-70
2023/11/19 04:58:39;;;;;;;2.07;2.07;;;;;;;;;;6273449;28;20286;-71
2023/11/19 05:01:47;;;;;;;1.63;1.63;;;;;;;;;;6279227;28;20290;-72
2023/11/19 05:04:51;;;;;;;1.70;1.70;;;;;;;;;;6278335;28;20339;-71
2023/11/19 05:07:55;;;;;;;1.93;1.93;;;;;;;;;;6278021;28;20610;-73
2023/11/19 05:10:59;;;;;;;1.80;1.80;;;;;;;;;;6278825;28;20319;-71
2023/11/19 05:14:04;;;;;;;2.10;2.00;;;;;;;;;;6278314;28;20287;-71
2023/11/19 05:17:09;;;;;;;1.80;1.70;;;;;;;;;;6278445;28;20340;-70
2023/11/19 05:20:14;;;;;;;2.00;1.90;;;;;;;;;;6278233;28;20298;-71
2023/11/19 05:23:17;;;;;;;1.77;1.77;;;;;;;;;;6277985;28;20300;-71
2023/11/19 05:26:25;;;;;;;2.50;2.40;;;;;;;;;;6278596;28;20302;-73
2023/11/19 05:29:29;;;;;;;2.87;2.77;;;;;;;;;;6278233;28;20306;-72
2023/11/19 05:32:34;;;;;;;3.77;3.00;;;;;;;;;;6278728;28;20303;-71
2023/11/19 05:35:38;;;;;;;3.13;2.83;;;;;;;;;;6283804;28;20494;-73
2023/11/19 05:38:42;;;;;;;2.87;2.73;;;;;;;;;;6278103;28;20675;-71
2023/11/19 05:41:46;;;;;;;2.97;2.87;;;;;;;;;;6278653;28;20284;-70
2023/11/19 05:44:49;;;;;;;2.83;2.70;;;;;;;;;;6278394;28;20455;-71
2023/11/19 05:47:54;;;;;;;2.90;2.80;;;;;;;;;;6278530;28;20315;-72
2023/11/19 05:50:58;;;;;;;3.00;2.90;;;;;;;;;;6278562;28;20318;-70
2023/11/19 05:54:02;;;;;;;2.80;2.70;;;;;;;;;;6277974;28;20298;-71
2023/11/19 05:57:06;;;;;;;3.27;3.07;;;;;;;;;;6278756;28;20298;-72
2023/11/19 06:00:12;;;;;;;2.67;2.57;;;;;;;;;;6276259;28;20302;-71
2023/11/19 06:03:18;;;;;;;2.93;2.83;;;;;;;;;;6277274;28;20318;-70
2023/11/19 06:06:21;;;;;;;2.93;2.80;;;;;;;;;;6278421;28;20374;-72
2023/11/19 06:09:25;;;;;;;2.70;2.70;;;;;;;;;;6278249;28;20495;-72
2023/11/19 06:12:29;;;;;;;2.67;2.67;;;;;;;;;;6278759;28;20290;-72
2023/11/19 06:15:34;;;;;;;3.27;3.07;;;;;;;;;;6277720;28;20298;-72
2023/11/19 06:18:41;;;;;;;2.97;2.87;;;;;;;;;;6278403;28;20302;-71
2023/11/19 06:21:45;;;;;;;2.80;2.80;;;;;;;;;;6283821;28;20298;-71
2023/11/19 06:24:49;;;;;;;2.70;2.50;;;;;;;;;;6283027;28;20298;-72
2023/11/19 06:27:53;;;;;;;2.57;2.47;;;;;;;;;;6261245;28;20323;-72
2023/11/19 06:30:57;;;;;;;3.03;2.83;;;;;;;;;;6276380;28;20310;-71
2023/11/19 06:34:03;;;;;;;2.40;2.40;;;;;;;;;;6282084;28;20307;-73
2023/11/19 06:37:09;;;;;;;2.77;2.67;;;;;;;;;;6282646;28;20402;-71
2023/11/19 06:40:15;;;;;;;2.87;2.60;;;;;;;;;;6282319;28;20308;-71
2023/11/19 06:43:19;;;;;;;2.90;2.80;;;;;;;;;;6279382;28;20294;-73
2023/11/19 06:46:23;;;;;;;2.50;2.50;;;;;;;;;;6290554;28;20290;-71
2023/11/19 06:49:28;;;;;;;3.47;2.80;;;;;;;;;;6282312;28;20298;-71
2023/11/19 06:52:31;;;;;;;2.67;2.60;;;;;;;;;;6280281;28;20364;-71
2023/11/19 06:55:35;;;;;;;2.83;2.67;;;;;;;;;;6289368;28;20292;-71
2023/11/19 06:58:39;;;;;;;2.47;2.47;;;;;;;;;;6279965;28;20303;-72
2023/11/19 07:01:43;;;;;;;3.07;2.80;;;;;;;;;;6282150;28;20299;-71
2023/11/19 07:04:48;;;;;;;2.60;2.57;;;;;;;;;;6281022;28;20299;-72
2023/11/19 07:07:53;;;;;;;3.03;2.70;;;;;;;;;;6281539;28;20480;-70
2023/11/19 07:10:57;;;;;;;2.33;2.33;;;;;;;;;;6281586;28;20312;-73
2023/11/19 07:14:01;;;;;;;2.67;2.57;;;;;;;;;;6281270;28;20318;-72
2023/11/19 07:17:06;;;;;;;2.47;2.47;;;;;;;;;;6281101;28;20310;-72
2023/11/19 07:20:14;;;;;;;2.90;2.90;;;;;;;;;;6281104;28;20329;-72
2023/11/19 07:23:18;;;;;;;3.07;2.97;;;;;;;;;;6281454;28;20299;-72
2023/11/19 07:26:22;;;;;;;2.70;2.70;;;;;;;;;;6281488;28;20299;-71
2023/11/19 07:29:26;;;;;;;2.70;2.70;;;;;;;;;;6280846;28;20621;-73
2023/11/19 07:32:32;;;;;;;3.10;2.90;;;;;;;;;;6280863;28;20304;-73
2023/11/19 07:35:37;;;;;;;3.30;3.20;;;;;;;;;;6280778;28;20294;-71
2023/11/19 07:38:41;;;;;;;2.67;2.57;;;;;;;;;;6280955;28;20246;-72
2023/11/19 07:41:45;;;;;;;3.10;2.90;;;;;;;;;;6281215;28;20503;-71
2023/11/19 07:44:48;;;;;;;3.00;2.90;;;;;;;;;;6296034;28;20790;-72
2023/11/19 07:47:52;;;;;;;2.83;2.73;;;;;;;;;;6295585;28;20287;-71
2023/11/19 07:50:57;;;;;;;2.97;2.77;;;;;;;;;;6280814;28;20303;-72
2023/11/19 07:54:01;;;;;;;3.57;3.00;;;;;;;;;;6280324;28;20604;-72
2023/11/19 07:57:05;;;;;;;2.90;2.80;;;;;;;;;;6280639;28;20308;-70
2023/11/19 08:00:12;;;;;;;3.10;3.03;;;;;;;;;;6278508;28;20299;-71
2023/11/19 08:03:16;;;;;;;3.40;3.20;;;;;;;;;;6279652;28;20299;-71
2023/11/19 08:06:21;;;;;;;3.27;3.17;;;;;;;;;;6278716;28;20302;-71
2023/11/19 08:09:25;;;;;;;2.97;2.87;;;;;;;;;;6278137;28;20291;-71
2023/11/19 08:12:28;;;;;;;3.33;2.93;;;;;;;;;;6280827;28;20297;-71
2023/11/19 08:15:33;;;;;;;3.07;2.97;;;;;;;;;;6279894;28;20320;-71
2023/11/19 08:18:37;;;;;;;2.73;2.67;;;;;;;;;;6278741;28;20331;-71
2023/11/19 08:21:42;;;;;;;3.57;3.37;;;;;;;;;;6279887;28;20306;-72
2023/11/19 08:24:45;;;;;;;3.27;3.17;;;;;;;;;;6279323;28;20323;-71
2023/11/19 08:27:49;;;;;;;2.87;2.83;;;;;;;;;;6279184;28;20512;-72
2023/11/19 08:30:53;;;;;;;2.90;2.80;;;;;;;;;;6279305;28;20319;-73
2023/11/19 08:33:57;;;;;;;2.93;2.83;;;;;;;;;;6280117;28;20455;-72
2023/11/19 08:37:02;;;;;;;3.30;3.20;;;;;;;;;;6280083;28;20476;-71
2023/11/19 08:40:08;;;;;;;3.47;3.27;;;;;;;;;;6279266;28;20535;-71
2023/11/19 08:43:12;;;;;;;3.40;3.30;;;;;;;;;;6278285;28;20581;-72
2023/11/19 08:46:15;;;;;;;4.23;3.53;;;;;;;;;;6279544;28;20471;-71
2023/11/19 08:49:19;;;;;;;5.53;3.27;;;;;;;;;;6279124;28;20326;-72
2023/11/19 08:52:24;;;;;;;3.33;3.13;;;;;;;;;;6279530;28;20314;-73
2023/11/19 08:55:28;;;;;;;4.13;3.50;;;;;;;;;;6278647;28;20389;-71
2023/11/19 08:58:32;;;;;;;3.77;3.67;;;;;;;;;;6292069;28;20299;-70
2023/11/19 09:01:36;;;;;;;3.13;3.10;;;;;;;;;;6279082;28;20298;-71
2023/11/19 09:04:40;;;;;;;3.47;3.30;;;;;;;;;;6276876;28;20501;-70
2023/11/19 09:07:45;;;;;;;3.57;3.30;;;;;;;;;;6278868;28;20297;-71
2023/11/19 09:10:49;;;;;;;3.63;3.50;;;;;;;;;;6278513;28;20608;-73
2023/11/19 09:13:53;;;;;;;3.00;2.90;;;;;;;;;;6278766;28;20301;-71
2023/11/19 09:16:57;;;;;;;3.93;3.20;;;;;;;;;;6270190;28;20563;-70
2023/11/19 09:20:00;;;;;;;8.03;3.20;;;;;;;;;;6278017;28;20290;-71
2023/11/19 09:23:06;;;;;;;3.73;3.37;;;;;;;;;;6278182;28;20298;-71
2023/11/19 09:26:10;;;;;;;3.53;3.33;;;;;;;;;;6278777;28;20332;-71
2023/11/19 09:29:14;;;;;;;3.37;3.27;;;;;;;;;;6278098;28;20284;-71
2023/11/19 09:32:18;;;;;;;3.30;3.20;;;;;;;;;;6278660;28;20306;-69
2023/11/19 09:35:22;;;;;;;3.30;3.20;;;;;;;;;;6278120;28;20281;-69
2023/11/19 09:38:27;;;;;;;3.43;3.17;;;;;;;;;;6278458;28;20287;-70
2023/11/19 09:41:31;;;;;;;3.10;3.00;;;;;;;;;;6278173;28;20292;-69
2023/11/19 09:44:35;;;;;;;2.77;2.67;;;;;;;;;;6278469;28;20305;-70
2023/11/19 09:47:40;;;;;;;3.27;3.17;;;;;;;;;;6278672;28;20284;-70
2023/11/19 09:50:45;;;;;;;2.87;2.77;;;;;;;;;;6278365;28;20489;-69
2023/11/19 09:53:51;;;;;;;2.90;2.80;;;;;;;;;;6278530;28;20294;-70
2023/11/19 09:56:54;;;;;;;2.97;2.87;;;;;;;;;;6283213;28;20296;-69
2023/11/19 09:59:59;;;;;;;3.00;2.97;;;;;;;;;;6281013;28;20301;-70
2023/11/19 10:03:05;;;;;;;3.17;3.07;;;;;;;;;;6280132;28;20290;-69
2023/11/19 10:06:09;;;;;;;3.03;2.93;;;;;;;;;;6272314;28;20349;-68
2023/11/19 10:09:15;;;;;;;3.10;3.00;;;;;;;;;;6283038;28;20301;-68
2023/11/19 10:12:19;;;;;;;3.10;3.00;;;;;;;;;;6282300;28;20298;-70
2023/11/19 10:15:26;;;;;;;3.20;3.10;;;;;;;;;;6282043;28;20576;-71
2023/11/19 10:18:31;;;;;;;2.87;2.77;;;;;;;;;;6281821;28;20440;-71
2023/11/19 10:21:34;;;;;;;2.93;2.83;;;;;;;;;;6282448;28;21777;-69
2023/11/19 10:24:40;;;;;;;3.33;3.00;;;;;;;;;;6282429;28;20552;-70
2023/11/19 10:27:51;;;;;;;3.10;2.90;;;;;;;;;;6281833;28;20482;-74
2023/11/19 10:30:57;;;;;;;3.20;3.10;;;;;;;;;;6282380;28;20342;-68
2023/11/19 10:34:01;;;;;;;3.17;2.97;;;;;;;;;;6282080;28;20301;-68
2023/11/19 10:37:05;;;;;;;2.90;2.70;;;;;;;;;;6280465;28;20308;-68
2023/11/19 10:40:12;;;;;;;2.70;2.60;;;;;;;;;;6279622;28;20548;-69
2023/11/19 10:43:15;;;;;;;2.80;2.60;;;;;;;;;;6282484;28;20293;-70
2023/11/19 10:46:22;;;;;;;2.60;2.60;;;;;;;;;;6282633;28;20280;-68
2023/11/19 10:49:26;;;;;;;2.77;2.63;;;;;;;;;;6282344;28;20293;-68
2023/11/19 10:52:30;;;;;;;2.63;2.57;;;;;;;;;;6282488;28;20306;-69
2023/11/19 10:55:38;;;;;;;2.77;2.67;;;;;;;;;;6281807;28;20291;-69
2023/11/19 10:58:46;;;;;;;2.80;2.70;;;;;;;;;;6280618;28;20310;-67
2023/11/19 11:01:52;;;;;;;2.60;2.40;;;;;;;;;;6281828;28;20250;-69
2023/11/19 11:04:56;;;;;;;2.40;2.40;;;;;;;;;;6280535;28;20295;-69
2023/11/19 11:08:02;;;;;;;2.93;2.73;;;;;;;;;;6280972;28;20296;-67
2023/11/19 11:11:10;;;;;;;2.80;2.70;;;;;;;;;;6254819;28;20341;-68
2023/11/19 11:14:14;;;;;;;2.40;2.40;;;;;;;;;;6281633;28;20298;-69
2023/11/19 11:17:18;;;;;;;2.30;2.30;;;;;;;;;;6281569;28;20306;-70
2023/11/19 11:20:24;;;;;;;2.80;2.70;;;;;;;;;;6281339;28;20318;-70
2023/11/19 11:23:57;;;;;;;2.43;2.33;;;;;;;;;;6281005;28;20297;-69
2023/11/19 11:27:29;;;;;;;2.63;2.53;;;;;;;;;;6279009;28;20285;-70
2023/11/19 11:30:44;;;;;;;2.60;2.50;;;;;;;;;;6277245;28;20306;-69
2023/11/19 11:34:06;;;;;;;4.73;3.93;;;;;;;;;;6282430;28;20298;-70
2023/11/19 11:37:20;;;;;;;3.13;2.80;;;;;;;;;;6279983;28;20285;-69
2023/11/19 11:40:26;;;;;;;2.67;2.57;;;;;;;;;;6285168;28;20298;-69
2023/11/19 11:43:49;;;;;;;2.60;2.50;;;;;;;;;;6280419;28;20293;-67
2023/11/19 11:46:56;;;;;;;2.67;2.57;;;;;;;;;;6280717;28;20291;-70
2023/11/19 11:50:06;;;;;;;2.83;2.77;;;;;;;;;;6280462;28;20302;-69
2023/11/19 11:53:22;;;;;;;2.83;2.73;;;;;;;;;;6279123;28;20563;-68
2023/11/19 11:56:34;;;;;;;2.93;2.70;;;;;;;;;;6280800;28;20287;-70
2023/11/19 11:59:44;;;;;;;3.63;2.80;;;;;;;;;;6279252;28;20296;-70
2023/11/19 12:02:48;;;;;;;2.90;2.70;;;;;;;;;;6280562;28;20318;-68
2023/11/19 12:05:52;;;;;;;2.50;2.40;;;;;;;;;;6281002;28;20811;-69
2023/11/19 12:09:00;;;;;;;2.53;2.43;;;;;;;;;;6284499;28;20322;-69
2023/11/19 12:12:21;;;;;;;2.90;2.80;;;;;;;;;;6280355;28;20313;-68
2023/11/19 12:15:27;;;;;;;2.73;2.63;;;;;;;;;;6279709;28;20478;-70
2023/11/19 12:18:32;;;;;;;2.73;2.63;;;;;;;;;;6279341;28;20406;-68
2023/11/19 12:21:37;;;;;;;2.57;2.57;;;;;;;;;;6280107;28;20295;-70
2023/11/19 12:24:44;;;;;;;2.77;2.40;;;;;;;;;;6275908;28;20301;-68
2023/11/19 12:27:48;;;;;;;3.03;2.93;;;;;;;;;;6280271;28;20297;-68
2023/11/19 12:30:54;;;;;;;3.00;2.80;;;;;;;;;;6280223;28;20303;-67
2023/11/19 12:33:58;;;;;;;2.60;2.60;;;;;;;;;;6279427;28;20300;-69
2023/11/19 12:37:04;;;;;;;3.33;3.10;;;;;;;;;;6280028;28;20306;-69
2023/11/19 12:40:18;;;;;;;3.10;3.00;;;;;;;;;;6279084;28;20302;-69
2023/11/19 12:43:23;;;;;;;2.63;2.63;;;;;;;;;;6279426;28;20331;-70
2023/11/19 12:46:28;;;;;;;3.53;3.43;;;;;;;;;;6280004;28;20504;-69
2023/11/19 12:49:32;;;;;;;2.63;2.63;;;;;;;;;;6252687;28;20291;-70
2023/11/19 12:52:36;;;;;;;2.90;2.80;;;;;;;;;;6261850;28;20305;-69
2023/11/19 12:55:40;;;;;;;3.57;3.47;;;;;;;;;;6261349;28;20455;-69
2023/11/19 12:58:43;;;;;;;2.80;2.70;;;;;;;;;;6277315;28;20612;-69
2023/11/19 13:01:56;;;;;;;3.27;3.17;;;;;;;;;;6279237;28;20304;-71
2023/11/19 13:05:00;;;;;;;3.20;3.10;;;;;;;;;;6278671;28;20297;-69
2023/11/19 13:08:04;;;;;;;3.20;3.10;;;;;;;;;;6278519;28;20310;-69
2023/11/19 13:11:09;;;;;;;3.30;3.13;;;;;;;;;;6279583;28;20286;-69
2023/11/19 13:14:13;;;;;;;3.20;3.00;;;;;;;;;;6279267;28;20294;-69
2023/11/19 13:17:18;;;;;;;5.30;3.43;;;;;;;;;;6279073;28;20564;-69
2023/11/19 13:20:22;;;;;;;3.43;3.10;;;;;;;;;;6278642;28;20305;-71
2023/11/19 13:23:26;;;;;;;3.47;3.37;;;;;;;;;;6278487;28;20236;-69
2023/11/19 13:26:30;;;;;;;3.10;3.00;;;;;;;;;;6279177;28;20295;-70
2023/11/19 13:29:33;;;;;;;3.33;3.13;;;;;;;;;;6277996;28;20291;-69
2023/11/19 13:32:40;;;;;;;3.30;3.10;;;;;;;;;;6279002;28;20322;-69
2023/11/19 13:35:44;;;;;;;3.67;3.37;;;;;;;;;;6278369;28;20299;-69
2023/11/19 13:38:48;;;;;;;3.13;3.03;;;;;;;;;;6279034;28;20286;-70
2023/11/19 13:41:52;;;;;;;3.20;3.10;;;;;;;;;;6279438;28;20294;-70
2023/11/19 13:44:56;;;;;;;3.67;3.47;;;;;;;;;;6278834;28;20341;-70
2023/11/19 13:48:01;;;;;;;3.30;3.20;;;;;;;;;;6278485;28;20311;-70
2023/11/19 13:51:06;;;;;;;3.80;3.63;;;;;;;;;;6278764;28;20323;-70
2023/11/19 13:54:10;;;;;;;3.50;3.20;;;;;;;;;;6278036;28;20299;-70
2023/11/19 13:57:13;;;;;;;3.33;3.23;;;;;;;;;;6279199;28;20308;-70
2023/11/19 14:00:18;;;;;;;3.80;3.60;;;;;;;;;;6276451;28;20356;-68
2023/11/19 14:03:24;;;;;;;3.67;3.47;;;;;;;;;;6278203;28;20293;-68
2023/11/19 14:06:27;;;;;;;3.40;3.30;;;;;;;;;;6278695;28;20292;-69
2023/11/19 14:09:31;;;;;;;3.50;3.27;;;;;;;;;;6278633;28;20288;-69
2023/11/19 14:12:36;;;;;;;3.17;3.07;;;;;;;;;;6278942;28;20307;-69
2023/11/19 14:15:40;;;;;;;3.13;2.93;;;;;;;;;;6251248;28;20288;-70
2023/11/19 14:18:46;;;;;;;3.77;3.50;;;;;;;;;;6278104;28;20301;-69
2023/11/19 14:21:50;;;;;;;4.00;3.80;;;;;;;;;;6278592;28;20301;-67
2023/11/19 14:24:55;;;;;;;3.90;3.70;;;;;;;;;;6278664;28;20314;-69
2023/11/19 14:27:59;;;;;;;4.03;3.80;;;;;;;;;;6284049;28;20379;-68
2023/11/19 14:31:02;;;;;;;3.90;3.60;;;;;;;;;;6278898;28;20551;-68
2023/11/19 14:34:07;;;;;;;4.30;4.00;;;;;;;;;;6278489;28;20305;-70
2023/11/19 14:37:11;;;;;;;3.80;3.60;;;;;;;;;;6278671;28;20297;-69
2023/11/19 14:40:15;;;;;;;9.00;3.70;;;;;;;;;;6277935;28;20294;-69
2023/11/19 14:43:18;;;;;;;3.87;3.50;;;;;;;;;;6282543;28;20533;-69
2023/11/19 14:46:22;;;;;;;3.73;3.53;;;;;;;;;;6282972;28;20308;-70
2023/11/19 14:49:28;;;;;;;3.60;3.30;;;;;;;;;;6282596;28;20297;-70
2023/11/19 14:52:31;;;;;;;3.60;3.40;;;;;;;;;;6297799;28;20314;-69
2023/11/19 14:55:35;;;;;;;3.70;3.60;;;;;;;;;;6282317;28;20301;-69
2023/11/19 14:58:39;;;;;;;3.70;3.50;;;;;;;;;;6280514;28;20293;-71
2023/11/19 15:01:45;;;;;;;3.07;2.97;;;;;;;;;;6282633;28;20297;-70
2023/11/19 15:04:51;;;;;;;2.93;2.77;;;;;;;;;;6281426;28;20832;-70
2023/11/19 15:07:55;;;;;;;3.40;3.20;;;;;;;;;;6282084;28;20540;-71
2023/11/19 15:11:01;;;;;;;3.00;2.90;;;;;;;;;;6282817;28;20333;-71
2023/11/19 15:14:06;;;;;;;3.20;3.00;;;;;;;;;;6282133;28;20306;-70
2023/11/19 15:17:10;;;;;;;2.80;2.60;;;;;;;;;;6286818;28;20452;-70
2023/11/19 15:20:18;;;;;;;2.93;2.70;;;;;;;;;;6279939;28;20296;-69
2023/11/19 15:23:22;;;;;;;3.80;2.77;;;;;;;;;;6280857;28;20318;-70
2023/11/19 15:26:25;;;;;;;2.53;2.43;;;;;;;;;;6281382;28;20318;-69
2023/11/19 15:29:30;;;;;;;3.57;2.50;;;;;;;;;;6280569;28;20505;-69
2023/11/19 15:32:34;;;;;;;2.70;2.50;;;;;;;;;;6281542;28;20279;-69
2023/11/19 15:35:40;;;;;;;2.80;2.70;;;;;;;;;;6280528;28;20284;-68
2023/11/19 15:38:44;;;;;;;2.70;2.60;;;;;;;;;;6280547;28;20307;-68
2023/11/19 15:41:51;;;;;;;2.80;2.70;;;;;;;;;;6280895;28;20660;-68
2023/11/19 15:44:54;;;;;;;3.00;2.90;;;;;;;;;;6280631;28;20289;-69
2023/11/19 15:47:58;;;;;;;3.10;2.90;;;;;;;;;;6280152;28;20599;-69
2023/11/19 15:51:03;;;;;;;2.70;2.60;;;;;;;;;;6280788;28;20310;-70
2023/11/19 15:54:07;;;;;;;2.97;2.87;;;;;;;;;;6280253;28;20313;-70
2023/11/19 15:57:11;;;;;;;2.97;2.87;;;;;;;;;;6280300;28;20337;-70
2023/11/19 16:00:16;;;;;;;2.73;2.73;;;;;;;;;;6251715;28;20304;-72
2023/11/19 16:03:20;;;;;;;3.20;3.10;;;;;;;;;;6280125;28;20291;-70
2023/11/19 16:06:26;;;;;;;3.60;3.30;;;;;;;;;;6280804;28;20612;-69
2023/11/19 16:09:30;;;;;;;3.00;2.90;;;;;;;;;;6277792;28;20302;-68
2023/11/19 16:12:33;;;;;;;4.40;3.20;;;;;;;;;;6280127;28;20299;-68
2023/11/19 16:15:37;;;;;;;2.90;2.80;;;;;;;;;;6279531;28;20302;-70
2023/11/19 16:18:41;;;;;;;3.63;3.30;;;;;;;;;;6279283;28;20315;-71
2023/11/19 16:21:46;;;;;;;3.37;3.20;;;;;;;;;;6262367;28;20582;-71
2023/11/19 16:24:54;;;;;;;3.70;3.50;;;;;;;;;;6280657;28;20300;-69
2023/11/19 16:27:59;;;;;;;4.60;4.30;;;;;;;;;;6260584;28;20314;-67
2023/11/19 16:31:03;;;;;;;3.60;3.40;;;;;;;;;;6279479;28;20302;-71
2023/11/19 16:34:07;;;;;;;3.23;3.13;;;;;;;;;;6279358;28;20333;-67
2023/11/19 16:37:12;;;;;;;2.90;2.80;;;;;;;;;;6279812;28;20467;-68
2023/11/19 16:40:17;;;;;;;3.23;3.07;;;;;;;;;;6279299;28;20315;-69
2023/11/19 16:43:22;;;;;;;3.57;3.37;;;;;;;;;;6261473;28;20515;-69
2023/11/19 16:46:27;;;;;;;3.57;3.47;;;;;;;;;;6279981;28;20498;-68
2023/11/19 16:49:32;;;;;;;3.50;3.40;;;;;;;;;;6258925;28;20739;-68
2023/11/19 16:52:38;;;;;;;3.47;3.27;;;;;;;;;;6287404;28;20295;-69
2023/11/19 16:55:42;;;;;;;3.73;3.60;;;;;;;;;;6279218;28;20357;-70
2023/11/19 16:58:45;;;;;;;3.30;3.10;;;;;;;;;;6277333;28;20299;-70
2023/11/19 17:01:50;;;;;;;3.63;3.43;;;;;;;;;;6279503;28;20282;-69
2023/11/19 17:04:53;;;;;;;3.40;3.20;;;;;;;;;;6278030;28;20314;-71
2023/11/19 17:07:59;;;;;;;4.23;4.03;;;;;;;;;;6278297;28;20287;-69
2023/11/19 17:11:03;;;;;;;3.60;3.50;;;;;;;;;;6279659;28;20338;-71
2023/11/19 17:14:07;;;;;;;3.27;3.00;;;;;;;;;;6279126;28;20339;-69
2023/11/19 17:17:10;;;;;;;4.70;3.37;;;;;;;;;;6277295;28;20241;-69
2023/11/19 17:20:15;;;;;;;3.30;3.20;;;;;;;;;;6252259;28;20295;-69
2023/11/19 17:23:20;;;;;;;4.17;3.23;;;;;;;;;;6276770;28;20310;-68
2023/11/19 17:26:24;;;;;;;3.47;3.37;;;;;;;;;;6276809;28;20295;-68
2023/11/19 17:29:47;;;;;;;4.27;3.87;;;;;;;;;;6278197;28;20302;-69
2023/11/19 17:32:51;;;;;;;3.70;3.60;;;;;;;;;;6278246;28;20311;-68
2023/11/19 17:35:55;;;;;;;4.37;3.40;;;;;;;;;;6278657;28;20301;-67
2023/11/19 17:39:03;;;;;;;4.50;4.10;;;;;;;;;;6277270;28;20466;-68
2023/11/19 17:42:08;;;;;;;3.50;3.30;;;;;;;;;;6277017;28;20299;-68
2023/11/19 17:45:14;;;;;;;3.77;3.57;;;;;;;;;;6277532;28;20364;-70
2023/11/19 17:48:17;;;;;;;3.93;3.73;;;;;;;;;;6275705;28;20295;-70
2023/11/19 17:51:21;;;;;;;3.50;3.40;;;;;;;;;;6280982;28;20243;-70
2023/11/19 17:54:27;;;;;;;3.97;3.50;;;;;;;;;;6280367;28;20314;-70
2023/11/19 17:57:31;;;;;;;3.80;3.60;;;;;;;;;;6262835;28;20284;-71
2023/11/19 18:00:34;;;;;;;3.53;3.23;;;;;;;;;;6278591;28;20326;-69
2023/11/19 18:03:39;;;;;;;3.90;3.70;;;;;;;;;;6279780;28;20298;-69
2023/11/19 18:06:44;;;;;;;4.30;4.00;;;;;;;;;;6280518;28;20319;-70
2023/11/19 18:09:50;;;;;;;3.73;3.53;;;;;;;;;;6278483;28;20287;-68
2023/11/19 18:12:54;;;;;;;6.63;3.63;;;;;;;;;;6279020;28;20295;-69
2023/11/19 18:15:58;;;;;;;3.50;3.30;;;;;;;;;;6281094;28;20303;-68
2023/11/19 18:19:03;;;;;;;3.67;3.43;;;;;;;;;;6283013;28;20305;-69
2023/11/19 18:22:07;;;;;;;4.00;3.70;;;;;;;;;;6285231;28;20321;-68
2023/11/19 18:25:13;;;;;;;3.43;3.13;;;;;;;;;;6283864;28;20477;-68
2023/11/19 18:28:19;;;;;;;3.60;3.40;;;;;;;;;;6273027;28;20294;-67
2023/11/19 18:31:23;;;;;;;3.67;3.47;;;;;;;;;;6246275;28;20242;-68